Available data for KAUS from the past 2 hours
AUSTIN, TX
Metar
KAUS 212253Z 13010KT 10SM FEW035 FEW075 BKN200 28/19 A2995 RMK AO2 SLP131 T02830194

22:53 UTC

Wind: 130° 10kt

Visibility: 10 SM

Sky: FEW 3500 ft

Temp: 28 deg C / 82.4 deg F

Dewpoint: 19 deg C / 66.2 deg F

Pressure: 29.95 inHg